Time;durP1;ratioP1;P1;durP2;ratioP2;P2;SDS_P1;SDS_P2;PMS_P1;PMS_P2;Temp;Humidity;BMP_temperature;BMP_pressure;BME280_temperature;BME280_humidity;BME280_pressure;Samples;Min_cycle;Max_cycle;Signal;HPM_P1;HPM_P2
2021/01/11 00:00:10;;;;;;;;;;;;;;;20.76;38.82;100934.47;5037091;28;748;-59
2021/01/11 00:02:36;;;;;;;;;;;;;;;20.33;39.79;100904.06;5037105;28;760;-57
2021/01/11 00:05:01;;;;;;;;;;;;;;;20.18;40.10;100888.50;5036969;28;740;-59
2021/01/11 00:07:27;;;;;;;;;;;;;;;19.44;41.54;100903.34;5036016;28;979;-57
2021/01/11 00:09:52;;;;;;;;;;;;;;;19.54;41.44;100902.41;5037125;28;891;-59
2021/01/11 00:12:19;;;;;;;;;;;;;;;20.41;39.49;100892.38;5036873;28;819;-58
2021/01/11 00:14:44;;;;;;;;;;;;;;;20.55;39.26;100897.13;5036612;28;811;-59
2021/01/11 00:17:09;;;;;;;;;;;;;;;20.24;39.92;100916.88;5043583;28;1917;-57
2021/01/11 00:19:35;;;;;;;;;;;;;;;19.84;40.61;100919.81;5056685;28;861;-55
2021/01/11 00:22:00;;;;;;;;;;;;;;;19.29;42.09;100934.66;5049440;28;1013;-55
2021/01/11 00:24:26;;;;;;;;;;;;;;;19.78;40.93;100938.34;5036680;28;1651;-55
2021/01/11 00:26:51;;;;;;;;;;;;;;;20.66;38.98;100927.09;5036545;28;751;-55
2021/01/11 00:29:17;;;;;;;;;;;;;;;20.26;39.86;100920.16;5036109;28;748;-58
2021/01/11 00:31:43;;;;;;;;;;;;;;;20.26;39.99;100911.88;5036656;28;823;-56
2021/01/11 00:34:08;;;;;;;;;;;;;;;19.67;41.14;100893.47;5036446;28;819;-55
2021/01/11 00:36:33;;;;;;;;;;;;;;;19.32;42.03;100880.84;5035601;28;1965;-55
2021/01/11 00:38:59;;;;;;;;;;;;;;;20.22;39.85;100872.19;5036485;28;859;-56
2021/01/11 00:41:24;;;;;;;;;;;;;;;20.77;38.87;100846.84;5036296;28;851;-56
2021/01/11 00:43:50;;;;;;;;;;;;;;;20.26;39.66;100831.78;5036204;28;795;-57
2021/01/11 00:46:24;;;;;;;;;;;;;;;20.15;39.96;100837.47;5018959;28;1173;-58
2021/01/11 00:48:52;;;;;;;;;;;;;;;19.30;41.81;100841.72;5018958;28;1238;-57
2021/01/11 00:51:18;;;;;;;;;;;;;;;19.96;40.61;100856.78;5018161;28;1242;-56
2021/01/11 00:53:44;;;;;;;;;;;;;;;20.70;38.96;100863.00;5018222;28;1163;-58
2021/01/11 00:56:13;;;;;;;;;;;;;;;20.18;39.89;100881.03;5036346;28;778;-58
2021/01/11 00:58:39;;;;;;;;;;;;;;;20.00;40.11;100931.50;5036217;28;1917;-57
2021/01/11 01:01:07;;;;;;;;;;;;;;;19.35;41.87;100946.47;5018708;28;932;-57
2021/01/11 01:03:35;;;;;;;;;;;;;;;19.99;40.56;100982.31;5002613;28;1371;-57
2021/01/11 01:06:00;;;;;;;;;;;;;;;20.76;38.99;100992.50;5035748;28;752;-56
2021/01/11 01:08:26;;;;;;;;;;;;;;;20.27;39.78;100968.75;5035652;28;964;-56
2021/01/11 01:10:51;;;;;;;;;;;;;;;20.16;40.23;100932.16;5036037;28;768;-55
2021/01/11 01:13:17;;;;;;;;;;;;;;;19.67;41.10;100923.00;5036107;28;780;-54
2021/01/11 01:15:42;;;;;;;;;;;;;;;19.01;42.77;100932.66;5036375;28;757;-56
2021/01/11 01:18:08;;;;;;;;;;;;;;;20.13;40.16;100935.50;5050589;28;1914;-57
2021/01/11 01:20:33;;;;;;;;;;;;;;;20.73;38.81;100932.28;5056226;28;831;-58
2021/01/11 01:22:58;;;;;;;;;;;;;;;20.24;40.01;100922.41;5022881;28;1164;-57
2021/01/11 01:25:24;;;;;;;;;;;;;;;20.10;40.24;100947.13;5035995;28;744;-56
2021/01/11 01:27:49;;;;;;;;;;;;;;;19.46;41.54;100958.19;5035979;28;866;-57
2021/01/11 01:30:15;;;;;;;;;;;;;;;19.02;42.71;100943.38;5035515;28;752;-56
2021/01/11 01:32:40;;;;;;;;;;;;;;;20.14;40.08;100939.91;5036188;28;776;-56
2021/01/11 01:35:06;;;;;;;;;;;;;;;20.69;39.03;100925.69;5035898;28;811;-56
2021/01/11 01:37:31;;;;;;;;;;;;;;;20.27;39.91;100896.97;5035124;28;1960;-59
2021/01/11 01:39:57;;;;;;;;;;;;;;;20.13;40.10;100897.69;5035799;28;882;-57
2021/01/11 01:42:22;;;;;;;;;;;;;;;19.59;41.32;100890.53;5035941;28;752;-58
2021/01/11 01:44:48;;;;;;;;;;;;;;;19.40;41.74;100898.69;5035565;28;768;-56
2021/01/11 01:47:13;;;;;;;;;;;;;;;20.34;39.92;100883.59;5036002;28;729;-54
2021/01/11 01:49:39;;;;;;;;;;;;;;;20.52;39.11;100888.34;5035827;28;820;-55
2021/01/11 01:52:04;;;;;;;;;;;;;;;20.37;39.69;100901.53;5034787;28;1003;-59
2021/01/11 01:54:30;;;;;;;;;;;;;;;19.89;40.69;100899.63;5018373;28;815;-60
2021/01/11 01:56:55;;;;;;;;;;;;;;;19.46;41.72;100905.81;5035706;28;1975;-57
2021/01/11 01:59:21;;;;;;;;;;;;;;;19.04;42.42;100897.09;5055021;28;756;-57
2021/01/11 02:01:46;;;;;;;;;;;;;;;20.12;40.27;100893.28;5055584;28;847;-55
2021/01/11 02:04:11;;;;;;;;;;;;;;;20.75;38.93;100896.88;5057208;28;852;-59
2021/01/11 02:06:37;;;;;;;;;;;;;;;20.09;39.99;100899.41;5054741;28;935;-58
2021/01/11 02:09:05;;;;;;;;;;;;;;;20.28;39.71;100895.84;5039288;28;811;-60
2021/01/11 02:11:30;;;;;;;;;;;;;;;19.44;41.41;100888.75;5021668;28;940;-60
2021/01/11 02:14:00;;;;;;;;;;;;;;;19.49;41.60;100877.66;5038798;28;848;-58
2021/01/11 02:16:44;;;;;;;;;;;;;;;20.48;39.28;100872.66;5039921;28;1120;-58
2021/01/11 02:19:30;;;;;;;;;;;;;;;20.26;39.75;100870.44;5058837;28;831;-60
2021/01/11 02:21:58;;;;;;;;;;;;;;;20.22;39.75;100861.16;5051631;28;1459;-59
2021/01/11 02:24:33;;;;;;;;;;;;;;;19.63;41.09;100861.25;5038897;28;1052;-58
2021/01/11 02:27:04;;;;;;;;;;;;;;;19.43;41.93;100863.09;5038910;28;794;-60
2021/01/11 02:29:29;;;;;;;;;;;;;;;20.47;39.37;100874.59;5038638;28;768;-59
2021/01/11 02:31:55;;;;;;;;;;;;;;;20.68;38.98;100860.53;5039250;28;776;-59
2021/01/11 02:34:20;;;;;;;;;;;;;;;20.29;39.94;100858.84;5020975;28;843;-57
2021/01/11 02:36:45;;;;;;;;;;;;;;;19.83;40.86;100858.28;5020217;28;1914;-57
2021/01/11 02:39:11;;;;;;;;;;;;;;;19.10;42.19;100857.34;5021059;28;756;-60
2021/01/11 02:41:36;;;;;;;;;;;;;;;19.61;41.49;100861.53;5038742;28;729;-58
2021/01/11 02:44:02;;;;;;;;;;;;;;;20.54;39.25;100837.47;5038428;28;877;-59
2021/01/11 02:46:27;;;;;;;;;;;;;;;20.32;39.83;100828.66;5038589;28;763;-59
2021/01/11 02:48:54;;;;;;;;;;;;;;;20.17;40.13;100821.44;5038658;28;823;-59
2021/01/11 02:51:20;;;;;;;;;;;;;;;19.85;40.90;100804.75;5020128;28;951;-57
2021/01/11 02:53:57;;;;;;;;;;;;;;;19.18;42.13;100800.78;5038270;28;796;-58
2021/01/11 02:56:33;;;;;;;;;;;;;;;19.98;40.40;100799.31;5038263;28;839;-59
2021/01/11 02:59:02;;;;;;;;;;;;;;;20.56;39.13;100782.78;5037964;28;760;-59
2021/01/11 03:01:28;;;;;;;;;;;;;;;20.13;40.04;100769.88;5038236;28;847;-59
2021/01/11 03:03:54;;;;;;;;;;;;;;;20.08;40.12;100787.31;5020701;28;787;-57
2021/01/11 03:06:19;;;;;;;;;;;;;;;19.47;41.70;100775.94;5019941;28;947;-59
2021/01/11 03:08:45;;;;;;;;;;;;;;;19.20;42.42;100765.44;5037983;28;937;-59
2021/01/11 03:11:10;;;;;;;;;;;;;;;20.24;40.24;100745.69;5038061;28;903;-60
2021/01/11 03:13:35;;;;;;;;;;;;;;;20.80;38.84;100736.53;5037821;28;832;-57
2021/01/11 03:16:01;;;;;;;;;;;;;;;20.33;39.80;100758.53;5037514;28;815;-56
2021/01/11 03:18:26;;;;;;;;;;;;;;;20.12;40.01;100759.97;5055373;28;1913;-56
2021/01/11 03:20:52;;;;;;;;;;;;;;;19.55;41.24;100768.13;5057894;28;759;-59
2021/01/11 03:23:17;;;;;;;;;;;;;;;19.57;41.45;100774.16;5039814;28;1010;-59
2021/01/11 03:25:43;;;;;;;;;;;;;;;20.51;39.60;100767.91;5037767;28;728;-58
2021/01/11 03:28:08;;;;;;;;;;;;;;;20.51;39.39;100767.91;5037473;28;803;-55
2021/01/11 03:30:34;;;;;;;;;;;;;;;20.28;39.79;100744.78;5037817;28;792;-57
2021/01/11 03:32:59;;;;;;;;;;;;;;;19.87;40.45;100747.34;5038083;28;781;-57
2021/01/11 03:35:25;;;;;;;;;;;;;;;19.45;41.59;100735.97;5037568;28;725;-55
2021/01/11 03:37:50;;;;;;;;;;;;;;;19.94;40.81;100750.53;5019271;28;1992;-56
2021/01/11 03:40:15;;;;;;;;;;;;;;;20.69;39.22;100762.69;5037575;28;764;-56
2021/01/11 03:42:41;;;;;;;;;;;;;;;20.38;39.73;100767.84;5037122;28;791;-55
2021/01/11 03:45:07;;;;;;;;;;;;;;;20.37;39.86;100758.75;5037398;28;765;-56
2021/01/11 03:47:32;;;;;;;;;;;;;;;19.79;40.81;100735.81;5037733;28;756;-55
2021/01/11 03:49:58;;;;;;;;;;;;;;;19.29;42.24;100729.78;5036971;28;772;-54
2021/01/11 03:52:24;;;;;;;;;;;;;;;20.37;39.82;100727.53;5036851;28;959;-54
2021/01/11 03:54:49;;;;;;;;;;;;;;;20.54;39.37;100732.50;5037335;28;744;-58
2021/01/11 03:57:15;;;;;;;;;;;;;;;20.18;40.15;100720.91;5036487;28;1989;-56
2021/01/11 03:59:40;;;;;;;;;;;;;;;19.86;40.90;100720.84;5037623;28;796;-55
2021/01/11 04:02:05;;;;;;;;;;;;;;;19.18;42.30;100706.22;5037509;28;760;-56
2021/01/11 04:04:31;;;;;;;;;;;;;;;19.44;42.14;100706.75;5036577;28;823;-55
2021/01/11 04:06:56;;;;;;;;;;;;;;;20.45;39.49;100716.63;5036460;28;944;-56
2021/01/11 04:09:22;;;;;;;;;;;;;;;20.40;39.53;100710.38;5037297;28;885;-58
2021/01/11 04:11:47;;;;;;;;;;;;;;;20.16;40.21;100703.84;5036533;28;795;-57
2021/01/11 04:14:13;;;;;;;;;;;;;;;19.66;41.17;100706.19;5037053;28;771;-58
2021/01/11 04:16:38;;;;;;;;;;;;;;;19.18;42.41;100698.78;5038907;28;1989;-57
2021/01/11 04:19:04;;;;;;;;;;;;;;;19.52;41.74;100684.03;5056353;28;859;-57
2021/01/11 04:21:29;;;;;;;;;;;;;;;20.44;39.52;100695.66;5053790;28;997;-57
2021/01/11 04:23:55;;;;;;;;;;;;;;;20.65;39.11;100700.81;5036365;28;1129;-57
2021/01/11 04:26:20;;;;;;;;;;;;;;;20.35;39.95;100719.56;5036154;28;863;-58
2021/01/11 04:28:45;;;;;;;;;;;;;;;19.81;40.68;100703.25;5035908;28;764;-58
2021/01/11 04:31:11;;;;;;;;;;;;;;;19.23;42.01;100714.44;5036656;28;812;-58
2021/01/11 04:33:36;;;;;;;;;;;;;;;19.95;40.82;100727.31;5036244;28;748;-56
2021/01/11 04:36:02;;;;;;;;;;;;;;;20.74;39.20;100743.25;5036825;28;1043;-59
2021/01/11 04:38:27;;;;;;;;;;;;;;;20.24;39.98;100735.47;5035937;28;1906;-59
2021/01/11 04:40:58;;;;;;;;;;;;;;;20.27;40.03;100723.84;5036390;28;867;-57
2021/01/11 04:43:24;;;;;;;;;;;;;;;19.51;41.45;100728.44;5018910;28;847;-53
2021/01/11 04:45:49;;;;;;;;;;;;;;;19.24;42.44;100732.63;5018900;28;938;-60
2021/01/11 04:48:15;;;;;;;;;;;;;;;20.24;40.34;100748.44;5018431;28;832;-57
2021/01/11 04:50:40;;;;;;;;;;;;;;;20.91;38.80;100769.50;5036362;28;867;-60
2021/01/11 04:53:05;;;;;;;;;;;;;;;;;;5035609;28;955;-59
2021/01/11 04:55:31;;;;;;;;;;;;;;;20.69;39.11;100790.31;5035962;28;756;-59
2021/01/11 04:57:56;;;;;;;;;;;;;;;20.44;39.65;100777.69;5008469;28;1960;-59
2021/01/11 05:00:24;;;;;;;;;;;;;;;19.73;41.13;100797.69;5055870;28;812;-59
2021/01/11 05:02:57;;;;;;;;;;;;;;;18.95;43.04;100807.84;5053928;28;1517;-59
2021/01/11 05:05:22;;;;;;;;;;;;;;;20.04;40.62;100791.00;5052186;28;870;-53
2021/01/11 05:07:48;;;;;;;;;;;;;;;20.62;39.38;100776.88;5053135;28;1029;-50
2021/01/11 05:10:14;;;;;;;;;;;;;;;20.27;40.08;100797.56;5056073;28;870;-59
2021/01/11 05:12:39;;;;;;;;;;;;;;;19.93;40.74;100769.03;5038506;28;1354;-57
2021/01/11 05:15:17;;;;;;;;;;;;;;;19.44;41.74;100751.66;5056284;28;811;-60
2021/01/11 05:17:44;;;;;;;;;;;;;;;19.52;41.85;100757.66;5055740;28;2008;-54
2021/01/11 05:20:09;;;;;;;;;;;;;;;20.52;39.63;100747.47;5056182;28;819;-50
2021/01/11 05:22:35;;;;;;;;;;;;;;;20.35;39.93;100744.41;5044366;28;1025;-47
2021/01/11 05:25:11;;;;;;;;;;;;;;;20.26;39.96;100752.56;5036194;28;763;-54
2021/01/11 05:27:36;;;;;;;;;;;;;;;19.67;41.00;100765.75;5035982;28;755;-56
2021/01/11 05:30:02;;;;;;;;;;;;;;;19.25;42.29;100776.44;5036328;28;783;-51
2021/01/11 05:32:27;;;;;;;;;;;;;;;19.80;41.13;100784.38;5018413;28;768;-55
2021/01/11 05:34:53;;;;;;;;;;;;;;;20.62;39.33;100792.59;5018270;28;919;-57
2021/01/11 05:37:37;;;;;;;;;;;;;;;20.42;39.67;100796.50;5035858;28;1914;-57
2021/01/11 05:40:12;;;;;;;;;;;;;;;20.17;40.15;100795.75;5039094;28;763;-59
2021/01/11 05:42:38;;;;;;;;;;;;;;;19.59;41.32;100799.50;5040487;28;776;-57
2021/01/11 05:45:10;;;;;;;;;;;;;;;19.30;41.97;100806.69;5040037;28;803;-55
2021/01/11 05:47:54;;;;;;;;;;;;;;;19.47;41.86;100795.22;5039677;28;792;-54
2021/01/11 05:50:20;;;;;;;;;;;;;;;20.50;39.52;100799.41;5040225;28;787;-59
2021/01/11 05:52:45;;;;;;;;;;;;;;;20.28;39.78;100786.19;5039929;28;959;-57
2021/01/11 05:55:21;;;;;;;;;;;;;;;20.18;40.16;100789.94;5039615;28;770;-55
2021/01/11 05:57:56;;;;;;;;;;;;;;;19.74;41.26;100777.25;5046921;28;1895;-56
2021/01/11 06:00:22;;;;;;;;;;;;;;;19.08;42.45;100776.88;5059757;28;747;-52
2021/01/11 06:02:48;;;;;;;;;;;;;;;19.99;40.83;100778.06;5059183;28;763;-50
2021/01/11 06:05:14;;;;;;;;;;;;;;;20.74;38.87;100770.09;5060090;28;783;-46
2021/01/11 06:07:40;;;;;;;;;;;;;;;20.25;39.83;100769.44;5059478;28;978;-48
2021/01/11 06:10:05;;;;;;;;;;;;;;;20.16;40.00;100772.84;5041251;28;772;-56
2021/01/11 06:12:31;;;;;;;;;;;;;;;19.46;41.44;100763.25;5042468;28;846;-50
2021/01/11 06:14:56;;;;;;;;;;;;;;;19.23;42.50;100755.78;5041707;28;836;-54
2021/01/11 06:17:22;;;;;;;;;;;;;;;20.27;40.18;100754.22;5058773;28;1965;-51
2021/01/11 06:19:47;;;;;;;;;;;;;;;20.43;39.36;100760.31;5041638;28;785;-55
2021/01/11 06:22:13;;;;;;;;;;;;;;;20.31;39.82;100769.06;5059164;28;1071;-59
2021/01/11 06:24:38;;;;;;;;;;;;;;;19.83;40.85;100775.50;5058878;28;771;-49
2021/01/11 06:27:14;;;;;;;;;;;;;;;19.28;42.20;100778.59;5059578;28;743;-56
2021/01/11 06:29:41;;;;;;;;;;;;;;;20.38;39.94;100787.19;5057983;28;882;-46
2021/01/11 06:32:23;;;;;;;;;;;;;;;20.71;38.88;100781.75;5040864;28;1336;-49
2021/01/11 06:34:48;;;;;;;;;;;;;;;20.13;40.12;100784.50;5059457;28;720;-49
2021/01/11 06:37:18;;;;;;;;;;;;;;;19.77;40.87;100787.69;5050221;28;2001;-55
2021/01/11 06:39:44;;;;;;;;;;;;;;;19.05;42.54;100805.00;5038618;28;788;-53
2021/01/11 06:42:10;;;;;;;;;;;;;;;19.89;40.77;100822.34;5039139;28;759;-52
2021/01/11 06:44:36;;;;;;;;;;;;;;;20.72;39.15;100822.03;5039026;28;748;-54
2021/01/11 06:47:01;;;;;;;;;;;;;;;20.06;40.42;100819.91;5021274;28;827;-51
2021/01/11 06:49:27;;;;;;;;;;;;;;;20.02;40.52;100829.94;5021337;28;760;-52
2021/01/11 06:52:05;;;;;;;;;;;;;;;19.45;41.78;100827.78;5037718;28;952;-55
2021/01/11 06:54:38;;;;;;;;;;;;;;;19.37;42.32;100833.13;5038680;28;867;-53
2021/01/11 06:57:07;;;;;;;;;;;;;;;20.37;39.86;100818.69;5038721;28;1980;-52
2021/01/11 06:59:32;;;;;;;;;;;;;;;20.26;39.87;100812.47;5038679;28;776;-53
2021/01/11 07:01:58;;;;;;;;;;;;;;;20.14;40.11;100815.69;5020736;28;1473;-57
2021/01/11 07:04:36;;;;;;;;;;;;;;;19.67;41.34;100824.50;5021241;28;1668;-58
2021/01/11 07:07:01;;;;;;;;;;;;;;;19.13;42.76;100807.13;5038208;28;987;-58
2021/01/11 07:09:27;;;;;;;;;;;;;;;20.14;40.51;100802.69;5038335;28;779;-54
2021/01/11 07:11:53;;;;;;;;;;;;;;;20.74;38.76;100797.72;5020862;28;912;-54
2021/01/11 07:14:22;;;;;;;;;;;;;;;20.18;40.23;100798.22;5038301;28;835;-51
2021/01/11 07:16:50;;;;;;;;;;;;;;;19.97;40.67;100818.94;5041714;28;1984;-52
2021/01/11 07:19:38;;;;;;;;;;;;;;;19.15;42.44;100829.72;5058202;28;537;-55
2021/01/11 07:22:04;;;;;;;;;;;;;;;19.62;41.67;100827.31;5045337;28;1397;-49
2021/01/11 07:24:29;;;;;;;;;;;;;;;20.66;39.37;100818.50;5038075;28;1229;-55
2021/01/11 07:26:54;;;;;;;;;;;;;;;20.28;39.96;100805.53;5038338;28;756;-52
2021/01/11 07:29:21;;;;;;;;;;;;;;;20.13;40.30;100806.59;5021026;28;735;-51
2021/01/11 07:31:47;;;;;;;;;;;;;;;19.53;41.47;100815.28;5037856;28;820;-49
2021/01/11 07:34:13;;;;;;;;;;;;;;;19.24;42.19;100837.38;5037970;28;827;-53
2021/01/11 07:36:39;;;;;;;;;;;;;;;20.11;40.52;100827.31;5041033;28;944;-51
2021/01/11 07:39:25;;;;;;;;;;;;;;;20.83;38.83;100818.84;5057610;28;1906;-49
2021/01/11 07:41:53;;;;;;;;;;;;;;;20.23;40.17;100805.63;5056799;28;1243;-50
2021/01/11 07:44:23;;;;;;;;;;;;;;;19.99;40.60;100789.09;5057550;28;868;-47
2021/01/11 07:46:55;;;;;;;;;;;;;;;19.02;42.59;100750.47;5056663;28;820;-47
2021/01/11 07:49:21;;;;;;;;;;;;;;;19.95;41.08;100743.88;5057868;28;842;-46
2021/01/11 07:51:49;;;;;;;;;;;;;;;20.62;39.19;100742.88;5053064;28;975;-45
2021/01/11 07:54:16;;;;;;;;;;;;;;;20.14;40.20;100746.66;5037398;28;855;-48
2021/01/11 07:56:41;;;;;;;;;;;;;;;20.02;40.50;100708.47;5056702;28;835;-49
2021/01/11 07:59:07;;;;;;;;;;;;;;;19.17;42.35;100685.25;5054053;28;1968;-46
2021/01/11 08:01:36;;;;;;;;;;;;;;;20.01;40.52;100742.72;5057411;28;798;-49
2021/01/11 08:04:02;;;;;;;;;;;;;;;20.77;38.99;100770.28;5057345;28;830;-52
2021/01/11 08:06:27;;;;;;;;;;;;;;;20.14;40.28;100783.38;5055114;28;990;-47
2021/01/11 08:08:54;;;;;;;;;;;;;;;20.15;40.12;100775.91;5037065;28;752;-47
2021/01/11 08:11:21;;;;;;;;;;;;;;;19.26;42.21;100766.22;5037328;28;751;-49
2021/01/11 08:13:46;;;;;;;;;;;;;;;19.91;41.21;100764.91;5037286;28;815;-49
2021/01/11 08:16:12;;;;;;;;;;;;;;;20.75;39.03;100780.00;5036858;28;843;-47
2021/01/11 08:18:40;;;;;;;;;;;;;;;20.13;40.22;100781.75;5056012;28;1913;-47
2021/01/11 08:21:10;;;;;;;;;;;;;;;20.00;40.43;100794.31;5057216;28;795;-55
2021/01/11 08:23:36;;;;;;;;;;;;;;;19.35;42.34;100808.59;5056181;28;1002;-54
2021/01/11 08:26:03;;;;;;;;;;;;;;;18.97;43.13;100808.38;5057028;28;874;-49
2021/01/11 08:28:28;;;;;;;;;;;;;;;19.54;41.81;100808.66;5057340;28;795;-49
2021/01/11 08:30:54;;;;;;;;;;;;;;;20.50;39.77;100796.66;5038808;28;797;-51
2021/01/11 08:33:20;;;;;;;;;;;;;;;20.31;39.94;100795.84;5038937;28;798;-53
2021/01/11 08:35:45;;;;;;;;;;;;;;;20.32;39.86;100798.28;5039159;28;1021;-49
2021/01/11 08:38:12;;;;;;;;;;;;;;;19.71;41.09;100786.09;5040025;28;1981;-48
2021/01/11 08:40:38;;;;;;;;;;;;;;;18.94;43.16;100751.09;5036919;28;811;-49
2021/01/11 08:43:13;;;;;;;;;;;;;;;19.99;40.93;100754.06;5037087;28;783;-48
2021/01/11 08:45:39;;;;;;;;;;;;;;;20.74;38.94;100743.25;5036286;28;794;-49
2021/01/11 08:48:11;;;;;;;;;;;;;;;20.13;40.39;100756.91;5036941;28;731;-52
2021/01/11 08:50:40;;;;;;;;;;;;;;;19.94;40.55;100759.63;5036725;28;756;-55
2021/01/11 08:53:25;;;;;;;;;;;;;;;19.16;42.59;100747.84;5036191;28;1074;-49
2021/01/11 08:55:54;;;;;;;;;;;;;;;20.11;40.59;100770.16;5036789;28;854;-52
2021/01/11 08:58:19;;;;;;;;;;;;;;;20.79;39.00;100776.34;5036683;28;1914;-50
2021/01/11 09:00:44;;;;;;;;;;;;;;;20.28;40.02;100790.91;5036362;28;819;-52
2021/01/11 09:03:10;;;;;;;;;;;;;;;20.09;40.40;100777.94;5019621;28;827;-49
2021/01/11 09:05:36;;;;;;;;;;;;;;;19.76;41.21;100769.50;5036401;28;732;-46
2021/01/11 09:08:12;;;;;;;;;;;;;;;19.83;41.01;100769.16;5036525;28;959;-46
2021/01/11 09:10:42;;;;;;;;;;;;;;;20.57;39.38;100771.41;5036665;28;771;-50
2021/01/11 09:13:17;;;;;;;;;;;;;;;20.20;40.27;100761.22;5035868;28;775;-49
2021/01/11 09:15:43;;;;;;;;;;;;;;;20.28;40.26;100771.59;5036131;28;715;-49
2021/01/11 09:18:09;;;;;;;;;;;;;;;19.38;42.23;100801.69;5051754;28;1913;-48
2021/01/11 09:20:35;;;;;;;;;;;;;;;19.62;41.62;100812.72;5056228;28;743;-48
2021/01/11 09:23:00;;;;;;;;;;;;;;;20.48;39.79;100818.25;5040958;28;1034;-47
2021/01/11 09:25:28;;;;;;;;;;;;;;;20.32;40.16;100814.06;5036227;28;812;-48
2021/01/11 09:27:53;;;;;;;;;;;;;;;20.04;40.72;100815.81;5054795;28;1438;-46
2021/01/11 09:30:19;;;;;;;;;;;;;;;19.62;41.46;100823.75;5055786;28;796;-50
2021/01/11 09:32:44;;;;;;;;;;;;;;;19.29;42.36;100832.63;5056248;28;759;-49
2021/01/11 09:35:11;;;;;;;;;;;;;;;19.56;42.00;100846.97;5055996;28;827;-45
2021/01/11 09:37:36;;;;;;;;;;;;;;;20.55;39.86;100844.66;5044089;28;1977;-54
2021/01/11 09:40:02;;;;;;;;;;;;;;;20.48;39.89;100850.53;5036342;28;764;-49
2021/01/11 09:42:28;;;;;;;;;;;;;;;20.38;40.05;100842.41;5036015;28;823;-51
2021/01/11 09:44:53;;;;;;;;;;;;;;;20.10;40.38;100832.00;5036184;28;831;-49
2021/01/11 09:47:18;;;;;;;;;;;;;;;19.30;42.35;100817.72;5036124;28;779;-59
2021/01/11 09:49:44;;;;;;;;;;;;;;;19.85;41.31;100815.78;5036026;28;890;-51
2021/01/11 09:52:09;;;;;;;;;;;;;;;20.68;39.31;100805.25;5035680;28;960;-50
2021/01/11 09:54:35;;;;;;;;;;;;;;;20.52;39.73;100802.72;5036240;28;863;-46
2021/01/11 09:57:00;;;;;;;;;;;;;;;20.28;40.18;100790.91;5035745;28;1886;-50
2021/01/11 09:59:26;;;;;;;;;;;;;;;19.80;41.35;100797.34;5036068;28;768;-49
2021/01/11 10:01:51;;;;;;;;;;;;;;;19.23;42.77;100799.88;5036063;28;768;-52
2021/01/11 10:04:17;;;;;;;;;;;;;;;19.18;42.88;100797.16;5035920;28;803;-48
2021/01/11 10:06:43;;;;;;;;;;;;;;;20.20;40.57;100816.44;5035363;28;947;-56
2021/01/11 10:09:09;;;;;;;;;;;;;;;20.92;38.72;100809.84;5036025;28;1531;-49
2021/01/11 10:11:35;;;;;;;;;;;;;;;20.20;40.43;100811.72;5036423;28;738;-58
2021/01/11 10:14:00;;;;;;;;;;;;;;;20.08;40.73;100823.22;5035671;28;776;-49
2021/01/11 10:16:26;;;;;;;;;;;;;;;19.40;42.07;100832.53;5036437;28;1097;-52
2021/01/11 10:18:51;;;;;;;;;;;;;;;19.01;43.25;100842.50;5055743;28;1967;-53
2021/01/11 10:21:16;;;;;;;;;;;;;;;20.11;40.92;100836.41;5054716;28;958;-52
2021/01/11 10:23:42;;;;;;;;;;;;;;;20.78;39.00;100840.19;5035587;28;1032;-53
2021/01/11 10:26:13;;;;;;;;;;;;;;;20.32;40.04;100825.09;5019284;28;1137;-53
2021/01/11 10:28:38;;;;;;;;;;;;;;;20.12;40.36;100827.03;5039067;28;803;-50
2021/01/11 10:31:04;;;;;;;;;;;;;;;19.40;42.01;100827.81;5039253;28;756;-53
2021/01/11 10:33:29;;;;;;;;;;;;;;;20.08;40.91;100822.41;5039274;28;736;-53
2021/01/11 10:35:55;;;;;;;;;;;;;;;20.72;39.22;100808.22;5038840;28;848;-50
2021/01/11 10:38:20;;;;;;;;;;;;;;;20.28;40.36;100796.44;5038655;28;1909;-52
2021/01/11 10:40:46;;;;;;;;;;;;;;;20.35;39.96;100802.41;5039179;28;748;-53
2021/01/11 10:43:11;;;;;;;;;;;;;;;19.70;41.32;100798.28;5038814;28;818;-53
2021/01/11 10:45:37;;;;;;;;;;;;;;;19.29;42.58;100798.72;5038770;28;799;-52
2021/01/11 10:48:02;;;;;;;;;;;;;;;20.37;40.06;100799.34;5039667;28;755;-56
2021/01/11 10:50:28;;;;;;;;;;;;;;;20.43;39.92;100804.50;5039093;28;775;-48
2021/01/11 10:52:53;;;;;;;;;;;;;;;20.31;40.15;100801.34;5038762;28;1007;-51
2021/01/11 10:55:19;;;;;;;;;;;;;;;20.08;40.74;100792.03;5038759;28;776;-52
2021/01/11 10:57:44;;;;;;;;;;;;;;;19.40;42.14;100794.72;5038828;28;1902;-58
2021/01/11 11:00:11;;;;;;;;;;;;;;;19.60;42.03;100793.69;5038196;28;875;-49
2021/01/11 11:02:37;;;;;;;;;;;;;;;20.39;40.27;100781.34;5038852;28;811;-51
2021/01/11 11:05:02;;;;;;;;;;;;;;;20.25;40.56;100777.72;5038574;28;767;-51
2021/01/11 11:07:32;;;;;;;;;;;;;;;20.17;40.58;100788.31;5038079;28;939;-48
2021/01/11 11:09:57;;;;;;;;;;;;;;;19.80;41.33;100778.84;5038854;28;791;-51
2021/01/11 11:12:23;;;;;;;;;;;;;;;19.24;43.17;100768.47;5038437;28;824;-49
2021/01/11 11:14:48;;;;;;;;;;;;;;;20.28;40.51;100764.13;5037993;28;783;-46
2021/01/11 11:17:14;;;;;;;;;;;;;;;20.88;39.31;100770.13;5045986;28;1983;-47
2021/01/11 11:19:40;;;;;;;;;;;;;;;20.37;40.10;100756.00;5058533;28;819;-53
2021/01/11 11:22:05;;;;;;;;;;;;;;;20.40;40.18;100765.59;5050668;28;947;-46
2021/01/11 11:24:31;;;;;;;;;;;;;;;19.64;41.67;100755.28;5038171;28;1280;-47
2021/01/11 11:27:00;;;;;;;;;;;;;;;19.18;42.98;100761.34;5038211;28;832;-48
2021/01/11 11:29:25;;;;;;;;;;;;;;;20.30;40.55;100780.38;5038010;28;740;-49
2021/01/11 11:31:51;;;;;;;;;;;;;;;20.92;39.17;100798.81;5038564;28;807;-46
2021/01/11 11:34:16;;;;;;;;;;;;;;;21.35;38.27;100806.88;5038082;28;780;-50
2021/01/11 11:36:42;;;;;;;;;;;;;;;20.72;39.30;100811.84;5036839;28;959;-53
2021/01/11 11:39:07;;;;;;;;;;;;;;;20.69;39.57;100809.66;5037950;28;1910;-48
2021/01/11 11:41:33;;;;;;;;;;;;;;;19.75;41.33;100805.66;5037865;28;929;-55
2021/01/11 11:43:58;;;;;;;;;;;;;;;19.28;42.82;100808.13;5037520;28;740;-48
2021/01/11 11:46:24;;;;;;;;;;;;;;;19.53;42.37;100806.19;5037953;28;791;-46
2021/01/11 11:48:49;;;;;;;;;;;;;;;20.64;39.72;100793.13;5037779;28;760;-55
2021/01/11 11:51:14;;;;;;;;;;;;;;;20.27;40.35;100800.31;5037208;28;1069;-49
2021/01/11 11:53:40;;;;;;;;;;;;;;;20.26;40.39;100805.03;5037970;28;800;-47
2021/01/11 11:56:05;;;;;;;;;;;;;;;19.87;41.04;100821.84;5037507;28;799;-51
2021/01/11 11:58:31;;;;;;;;;;;;;;;19.39;42.51;100828.97;5037161;28;2038;-49
2021/01/11 12:00:56;;;;;;;;;;;;;;;19.93;41.19;100835.25;5037702;28;848;-56
2021/01/11 12:03:22;;;;;;;;;;;;;;;20.78;39.28;100835.50;5074723;28;1036;-57
2021/01/11 12:05:47;;;;;;;;;;;;;;;20.34;40.42;100843.03;5076871;28;819;-48
2021/01/11 12:08:13;;;;;;;;;;;;;;;20.23;40.45;100833.25;5054074;28;1154;-49
2021/01/11 12:10:38;;;;;;;;;;;;;;;19.76;41.36;100835.72;5037492;28;833;-47
2021/01/11 12:13:03;;;;;;;;;;;;;;;19.25;42.52;100816.94;5056542;28;833;-48
2021/01/11 12:15:29;;;;;;;;;;;;;;;20.19;40.63;100832.19;5056960;28;825;-46
2021/01/11 12:17:54;;;;;;;;;;;;;;;20.79;39.09;100834.38;5056922;28;1909;-47
2021/01/11 12:20:20;;;;;;;;;;;;;;;20.35;40.14;100852.13;5056602;28;851;-50
2021/01/11 12:22:45;;;;;;;;;;;;;;;20.07;40.70;100857.44;5043956;28;1208;-54
2021/01/11 12:25:11;;;;;;;;;;;;;;;19.24;42.63;100862.19;5036926;28;815;-58
2021/01/11 12:27:37;;;;;;;;;;;;;;;19.49;42.47;100841.81;5036568;28;784;-58
2021/01/11 12:30:03;;;;;;;;;;;;;;;20.45;40.10;100848.38;5036944;28;747;-52
2021/01/11 12:32:28;;;;;;;;;;;;;;;20.52;39.66;100841.38;5036630;28;832;-50
2021/01/11 12:34:54;;;;;;;;;;;;;;;20.34;40.47;100839.41;5036461;28;752;-54
2021/01/11 12:37:19;;;;;;;;;;;;;;;19.92;40.84;100854.88;5036616;28;1914;-51
2021/01/11 12:39:45;;;;;;;;;;;;;;;19.19;42.93;100868.53;5036678;28;783;-46
2021/01/11 12:42:11;;;;;;;;;;;;;;;19.98;41.43;100853.72;5036814;28;843;-55
2021/01/11 12:44:36;;;;;;;;;;;;;;;20.64;39.46;100849.22;5037100;28;779;-51
2021/01/11 12:47:02;;;;;;;;;;;;;;;20.22;40.57;100845.41;5036642;28;928;-54
2021/01/11 12:49:28;;;;;;;;;;;;;;;20.28;40.26;100848.91;5035921;28;866;-58
2021/01/11 12:51:53;;;;;;;;;;;;;;;19.61;41.82;100850.47;5036745;28;955;-57